Terminal Aerodrome Forecast
Issued by NWS Jackson, MS

Home | Current Version | Previous Version | Text Only | Print | Product List | Glossary On
Versions: 1 2 3 4 5 6 7 8 9 10 11 12 13 14 15 16 17 18
820
FTUS44 KJAN 241149
TAFMEI
TAF
KMEI 241149Z 2412/2512 20003KT P6SM SCT015 BKN025
     FM241400 24005KT P6SM OVC025
     FM241900 31005KT P6SM -RA VCTS OVC035CB
     FM242300 34006KT 6SM -RA VCTS OVC019CB
     FM250200 01003KT P6SM OVC070=

USA.gov is the U.S. government's official web portal to all federal, state and local government web resources and services.